Time,TemperatureF,DewpointF,PressureIn,WindDirection,WindDirectionDegrees,WindSpeedMPH,WindSpeedGustMPH,Humidity,HourlyPrecipIn,Conditions,Clouds,dailyrainin,SoftwareType,DateUTC
2013-06-30 00:01:00,65.6,57.1,29.74,ENE,58,1.7,1.7,74,0.00,,---,0.00,VWS V14.01,2013-06-30 04:01:00,
2013-06-30 00:02:00,65.8,57.3,29.74,NE,35,3.3,3.3,74,0.00,,---,0.00,VWS V14.01,2013-06-30 04:02:00,
2013-06-30 00:03:00,65.6,57.1,29.74,NE,35,3.3,3.3,74,0.00,,---,0.00,VWS V14.01,2013-06-30 04:03:00,
2013-06-30 00:07:00,65.6,57.1,29.74,NE,35,0.0,0.0,74,0.00,,---,0.00,VWS V14.01,2013-06-30 04:07:00,
2013-06-30 00:08:00,65.6,57.1,29.74,South,170,1.7,1.7,74,0.00,,---,0.00,VWS V14.01,2013-06-30 04:08:00,
2013-06-30 00:13:00,65.6,57.1,29.74,NE,35,0.0,0.0,74,0.00,,---,0.00,VWS V14.01,2013-06-30 04:13:00,
2013-06-30 00:18:00,65.6,57.1,29.74,NE,35,0.0,0.0,74,0.00,,---,0.00,VWS V14.01,2013-06-30 04:18:00,
2013-06-30 00:23:00,65.6,57.1,29.74,North,350,2.3,2.3,74,0.00,,---,0.00,VWS V14.01,2013-06-30 04:23:00,
2013-06-30 00:28:00,65.6,57.1,29.74,NE,35,1.3,1.3,74,0.00,,---,0.00,VWS V14.01,2013-06-30 04:28:00,
2013-06-30 00:33:00,65.6,57.1,29.74,SW,215,0.0,0.0,74,0.00,,---,0.00,VWS V14.01,2013-06-30 04:33:00,
2013-06-30 00:38:00,65.6,57.1,29.74,NE,35,0.0,0.0,74,0.00,,---,0.00,VWS V14.01,2013-06-30 04:38:00,
2013-06-30 00:44:00,65.6,57.1,29.74,NE,35,0.0,0.0,74,0.00,,---,0.00,VWS V14.01,2013-06-30 04:44:00,
2013-06-30 00:49:00,65.6,57.1,29.74,East,80,5.3,5.3,74,0.00,,---,0.00,VWS V14.01,2013-06-30 04:49:00,
2013-06-30 00:54:00,65.6,57.1,29.74,West,260,1.3,1.3,74,0.00,,---,0.00,VWS V14.01,2013-06-30 04:54:00,
2013-06-30 00:59:00,65.6,57.5,29.74,North,350,0.0,1.3,75,0.00,,---,0.00,VWS V14.01,2013-06-30 04:59:00,
2013-06-30 01:04:00,65.4,57.3,29.74,NE,35,0.0,0.0,75,0.00,,---,0.00,VWS V14.01,2013-06-30 05:04:00,
2013-06-30 01:09:00,65.4,57.3,29.74,NE,35,0.0,0.0,75,0.00,,---,0.00,VWS V14.01,2013-06-30 05:09:00,
2013-06-30 01:14:00,65.4,57.3,29.74,NW,305,0.0,1.3,75,0.00,,---,0.00,VWS V14.01,2013-06-30 05:14:00,
2013-06-30 01:19:00,65.4,57.3,29.74,NE,35,0.0,1.7,75,0.00,,---,0.00,VWS V14.01,2013-06-30 05:19:00,
2013-06-30 01:24:00,65.4,57.3,29.74,NW,305,0.0,0.0,75,0.00,,---,0.00,VWS V14.01,2013-06-30 05:24:00,
2013-06-30 01:29:00,65.4,57.3,29.74,NE,35,0.0,0.0,75,0.00,,---,0.00,VWS V14.01,2013-06-30 05:29:00,
2013-06-30 01:34:00,65.4,57.3,29.74,East,80,0.0,0.0,75,0.00,,---,0.00,VWS V14.01,2013-06-30 05:34:00,
2013-06-30 01:39:00,65.4,57.3,29.74,NE,35,2.0,2.0,75,0.00,,---,0.00,VWS V14.01,2013-06-30 05:39:00,
2013-06-30 01:44:00,65.4,57.7,29.74,North,350,0.0,0.0,76,0.00,,---,0.00,VWS V14.01,2013-06-30 05:44:00,
2013-06-30 01:49:00,65.4,57.7,29.74,NE,35,0.0,0.0,76,0.00,,---,0.00,VWS V14.01,2013-06-30 05:49:00,
2013-06-30 01:54:00,65.2,57.5,29.74,East,80,3.3,3.3,76,0.00,,---,0.00,VWS V14.01,2013-06-30 05:54:00,
2013-06-30 01:59:00,65.2,57.5,29.74,NE,35,0.0,0.0,76,0.00,,---,0.00,VWS V14.01,2013-06-30 05:59:00,
2013-06-30 02:04:00,65.1,57.0,29.76,NW,305,0.0,0.0,75,0.00,,---,0.00,VWS V14.01,2013-06-30 06:04:00,
2013-06-30 02:09:00,65.1,57.0,29.76,NW,305,2.0,2.0,75,0.00,,---,0.00,VWS V14.01,2013-06-30 06:09:00,
2013-06-30 02:14:00,65.1,57.0,29.76,NE,35,0.0,0.0,75,0.00,,---,0.00,VWS V14.01,2013-06-30 06:14:00,
2013-06-30 02:19:00,64.9,57.1,29.76,North,350,0.0,2.0,76,0.00,,---,0.00,VWS V14.01,2013-06-30 06:19:00,
2013-06-30 02:24:00,64.9,56.8,29.76,NE,35,3.0,3.0,75,0.00,,---,0.00,VWS V14.01,2013-06-30 06:24:00,
2013-06-30 02:29:00,64.9,57.1,29.76,NE,35,2.0,3.6,76,0.00,,---,0.00,VWS V14.01,2013-06-30 06:29:00,
2013-06-30 02:34:00,64.7,57.0,29.76,North,350,0.0,1.3,76,0.00,,---,0.00,VWS V14.01,2013-06-30 06:34:00,
2013-06-30 02:39:00,64.7,57.0,29.76,NE,35,0.0,0.0,76,0.00,,---,0.00,VWS V14.01,2013-06-30 06:39:00,
2013-06-30 02:44:00,64.7,56.6,29.76,NE,35,1.7,1.7,75,0.00,,---,0.00,VWS V14.01,2013-06-30 06:44:00,
2013-06-30 02:49:00,64.7,57.0,29.76,North,350,1.7,1.7,76,0.00,,---,0.00,VWS V14.01,2013-06-30 06:49:00,
2013-06-30 02:54:00,64.7,56.6,29.76,NW,305,0.0,0.0,75,0.00,,---,0.00,VWS V14.01,2013-06-30 06:54:00,
2013-06-30 02:59:00,64.7,56.6,29.76,West,260,0.0,3.0,75,0.00,,---,0.00,VWS V14.01,2013-06-30 06:59:00,
2013-06-30 03:04:00,64.5,56.4,29.76,NE,35,0.0,5.0,75,0.00,,---,0.00,VWS V14.01,2013-06-30 07:04:00,
2013-06-30 03:09:00,64.5,56.4,29.76,North,350,0.0,1.3,75,0.00,,---,0.00,VWS V14.01,2013-06-30 07:09:00,
2013-06-30 03:15:00,64.5,56.4,29.76,North,350,0.0,0.0,75,0.00,,---,0.00,VWS V14.01,2013-06-30 07:15:00,
2013-06-30 03:20:00,64.5,56.4,29.76,North,350,3.6,3.6,75,0.00,,---,0.00,VWS V14.01,2013-06-30 07:20:00,
2013-06-30 03:25:00,64.3,56.3,29.76,NE,35,0.0,0.0,75,0.00,,---,0.00,VWS V14.01,2013-06-30 07:25:00,
2013-06-30 03:30:00,64.3,56.3,29.76,NE,35,4.0,4.0,75,0.00,,---,0.00,VWS V14.01,2013-06-30 07:30:00,
2013-06-30 03:35:00,64.3,56.3,29.76,North,350,0.0,0.0,75,0.00,,---,0.00,VWS V14.01,2013-06-30 07:35:00,
2013-06-30 03:40:00,64.2,56.5,29.76,NE,35,0.0,3.6,76,0.00,,---,0.00,VWS V14.01,2013-06-30 07:40:00,
2013-06-30 03:45:00,64.2,56.5,29.76,North,350,0.0,0.0,76,0.00,,---,0.00,VWS V14.01,2013-06-30 07:45:00,
2013-06-30 03:50:00,64.2,56.1,29.76,North,350,0.0,0.0,75,0.00,,---,0.00,VWS V14.01,2013-06-30 07:50:00,
2013-06-30 03:55:00,64.0,56.3,29.76,NE,35,0.0,0.0,76,0.00,,---,0.00,VWS V14.01,2013-06-30 07:55:00,
2013-06-30 04:00:00,64.0,56.3,29.76,NE,35,1.7,3.0,76,0.00,,---,0.00,VWS V14.01,2013-06-30 08:00:00,
2013-06-30 04:05:00,64.0,56.3,29.76,NE,35,0.0,0.0,76,0.00,,---,0.00,VWS V14.01,2013-06-30 08:05:00,
2013-06-30 04:10:00,64.0,56.3,29.76,NE,35,0.0,0.0,76,0.00,,---,0.00,VWS V14.01,2013-06-30 08:10:00,
2013-06-30 04:15:00,64.0,56.3,29.76,NE,35,0.0,2.0,76,0.00,,---,0.00,VWS V14.01,2013-06-30 08:15:00,
2013-06-30 04:20:00,64.0,55.9,29.76,NE,35,0.0,3.3,75,0.00,,---,0.00,VWS V14.01,2013-06-30 08:20:00,
2013-06-30 04:25:00,63.8,55.7,29.76,North,350,0.0,0.0,75,0.00,,---,0.00,VWS V14.01,2013-06-30 08:25:00,
2013-06-30 04:30:00,63.8,55.7,29.76,NE,35,0.0,1.3,75,0.00,,---,0.00,VWS V14.01,2013-06-30 08:30:00,
2013-06-30 04:35:00,63.6,55.9,29.76,SE,125,0.0,3.6,76,0.00,,---,0.00,VWS V14.01,2013-06-30 08:35:00,
2013-06-30 04:40:00,63.6,55.9,29.76,North,350,0.0,0.0,76,0.00,,---,0.00,VWS V14.01,2013-06-30 08:40:00,
2013-06-30 04:45:00,63.6,55.9,29.76,North,350,0.0,1.7,76,0.00,,---,0.00,VWS V14.01,2013-06-30 08:45:00,
2013-06-30 04:50:00,63.4,55.8,29.76,NE,35,1.7,1.7,76,0.00,,---,0.00,VWS V14.01,2013-06-30 08:50:00,
2013-06-30 04:55:00,63.3,55.6,29.76,NE,35,1.7,1.7,76,0.00,,---,0.00,VWS V14.01,2013-06-30 08:55:00,
2013-06-30 05:00:00,63.3,55.6,29.76,North,350,0.0,0.0,76,0.00,,---,0.00,VWS V14.01,2013-06-30 09:00:00,
2013-06-30 05:05:00,63.3,55.9,29.76,NE,35,0.0,2.0,77,0.00,,---,0.00,VWS V14.01,2013-06-30 09:05:00,
2013-06-30 05:10:00,63.1,55.8,29.76,North,350,2.0,2.0,77,0.00,,---,0.00,VWS V14.01,2013-06-30 09:10:00,
2013-06-30 05:15:00,62.9,55.6,29.76,North,350,0.0,0.0,77,0.00,,---,0.00,VWS V14.01,2013-06-30 09:15:00,
2013-06-30 05:20:00,62.9,55.6,29.76,North,350,0.0,0.0,77,0.00,,---,0.00,VWS V14.01,2013-06-30 09:20:00,
2013-06-30 05:25:00,62.9,55.9,29.76,North,350,0.0,0.0,78,0.00,,---,0.00,VWS V14.01,2013-06-30 09:25:00,
2013-06-30 05:30:00,62.7,55.4,29.76,North,350,3.6,3.6,77,0.00,,---,0.00,VWS V14.01,2013-06-30 09:30:00,
2013-06-30 05:35:00,62.5,55.6,29.76,NE,35,1.7,2.0,78,0.00,,---,0.00,VWS V14.01,2013-06-30 09:35:00,
2013-06-30 05:40:00,62.5,55.6,29.76,North,350,0.0,0.0,78,0.00,,---,0.00,VWS V14.01,2013-06-30 09:40:00,
2013-06-30 05:45:00,62.5,55.6,29.76,NE,35,0.0,0.0,78,0.00,,---,0.00,VWS V14.01,2013-06-30 09:45:00,
2013-06-30 05:51:00,62.5,55.6,29.79,North,350,0.0,0.0,78,0.00,,---,0.00,VWS V14.01,2013-06-30 09:51:00,
2013-06-30 05:56:00,62.5,55.6,29.79,North,350,0.0,0.0,78,0.00,,---,0.00,VWS V14.01,2013-06-30 09:56:00,
2013-06-30 06:01:00,62.5,55.6,29.79,North,350,0.0,0.0,78,0.00,,---,0.00,VWS V14.01,2013-06-30 10:01:00,
2013-06-30 06:06:00,62.5,55.6,29.79,North,350,0.0,0.0,78,0.00,,---,0.00,VWS V14.01,2013-06-30 10:06:00,
2013-06-30 06:11:00,62.5,56.0,29.79,North,350,0.0,0.0,79,0.00,,---,0.00,VWS V14.01,2013-06-30 10:11:00,
2013-06-30 06:16:00,62.5,56.0,29.79,North,350,0.0,0.0,79,0.00,,---,0.00,VWS V14.01,2013-06-30 10:16:00,
2013-06-30 06:21:00,62.5,56.0,29.79,North,350,0.0,0.0,79,0.00,,---,0.00,VWS V14.01,2013-06-30 10:21:00,
2013-06-30 06:26:00,62.5,56.0,29.79,North,350,0.0,0.0,79,0.00,,---,0.00,VWS V14.01,2013-06-30 10:26:00,
2013-06-30 06:31:00,62.4,55.8,29.79,North,350,0.0,0.0,79,0.00,,---,0.00,VWS V14.01,2013-06-30 10:31:00,
2013-06-30 06:36:00,62.5,56.0,29.79,North,350,0.0,2.0,79,0.00,,---,0.00,VWS V14.01,2013-06-30 10:36:00,
2013-06-30 06:41:00,62.5,56.0,29.79,North,350,0.0,0.0,79,0.00,,---,0.00,VWS V14.01,2013-06-30 10:41:00,
2013-06-30 06:46:00,62.5,56.0,29.79,North,350,0.0,0.0,79,0.00,,---,0.00,VWS V14.01,2013-06-30 10:46:00,
2013-06-30 06:51:00,62.5,56.0,29.79,North,350,0.0,0.0,79,0.00,,---,0.00,VWS V14.01,2013-06-30 10:51:00,
2013-06-30 06:56:00,62.5,56.3,29.79,North,350,0.0,0.0,80,0.00,,---,0.00,VWS V14.01,2013-06-30 10:56:00,
2013-06-30 07:01:00,62.5,56.3,29.79,North,350,0.0,0.0,80,0.00,,---,0.00,VWS V14.01,2013-06-30 11:01:00,
2013-06-30 07:06:00,62.7,56.5,29.79,North,350,0.0,0.0,80,0.00,,---,0.00,VWS V14.01,2013-06-30 11:06:00,
2013-06-30 07:11:00,62.7,56.5,29.79,North,350,0.0,0.0,80,0.00,,---,0.00,VWS V14.01,2013-06-30 11:11:00,
2013-06-30 07:16:00,62.7,56.5,29.79,NNE,12,1.7,1.7,80,0.00,,---,0.00,VWS V14.01,2013-06-30 11:16:00,
2013-06-30 07:21:00,62.7,56.5,29.82,North,350,0.0,0.0,80,0.00,,---,0.00,VWS V14.01,2013-06-30 11:21:00,
2013-06-30 07:26:00,62.7,56.5,29.82,NE,35,0.0,0.0,80,0.00,,---,0.00,VWS V14.01,2013-06-30 11:26:00,
2013-06-30 07:31:00,62.9,56.6,29.82,North,350,0.0,0.0,80,0.00,,---,0.00,VWS V14.01,2013-06-30 11:31:00,
2013-06-30 07:36:00,62.9,56.6,29.82,NE,35,0.0,0.0,80,0.00,,---,0.00,VWS V14.01,2013-06-30 11:36:00,
2013-06-30 07:41:00,63.1,56.8,29.82,NE,35,0.0,0.0,80,0.00,,---,0.00,VWS V14.01,2013-06-30 11:41:00,
2013-06-30 07:46:00,63.1,57.2,29.82,North,350,0.0,0.0,81,0.00,,---,0.00,VWS V14.01,2013-06-30 11:46:00,
2013-06-30 07:51:00,63.1,56.8,29.82,NE,35,0.0,0.0,80,0.00,,---,0.00,VWS V14.01,2013-06-30 11:51:00,
2013-06-30 07:56:00,63.3,57.0,29.82,North,350,0.0,0.0,80,0.00,,---,0.00,VWS V14.01,2013-06-30 11:56:00,
2013-06-30 08:01:00,63.3,57.3,29.82,North,350,0.0,0.0,81,0.00,,---,0.00,VWS V14.01,2013-06-30 12:01:00,
2013-06-30 08:06:00,63.3,57.3,29.82,North,350,0.0,0.0,81,0.00,,---,0.00,VWS V14.01,2013-06-30 12:06:00,
2013-06-30 08:11:00,63.4,57.5,29.82,NE,35,0.0,0.0,81,0.00,,---,0.00,VWS V14.01,2013-06-30 12:11:00,
2013-06-30 08:16:00,63.6,57.7,29.82,ENE,58,0.0,0.0,81,0.00,,---,0.00,VWS V14.01,2013-06-30 12:16:00,
2013-06-30 08:22:00,63.8,57.9,29.82,North,350,0.0,0.0,81,0.00,,---,0.00,VWS V14.01,2013-06-30 12:22:00,
2013-06-30 08:27:00,64.0,58.0,29.82,NE,35,0.0,0.0,81,0.00,,---,0.00,VWS V14.01,2013-06-30 12:27:00,
2013-06-30 08:32:00,64.0,58.0,29.82,NW,305,0.0,0.0,81,0.00,,---,0.00,VWS V14.01,2013-06-30 12:32:00,
2013-06-30 08:37:00,64.2,58.2,29.82,North,350,5.0,5.0,81,0.00,,---,0.00,VWS V14.01,2013-06-30 12:37:00,
2013-06-30 08:42:00,64.3,58.0,29.82,North,350,0.0,2.0,80,0.00,,---,0.00,VWS V14.01,2013-06-30 12:42:00,
2013-06-30 08:47:00,64.5,58.6,29.82,North,350,3.0,3.0,81,0.00,,---,0.00,VWS V14.01,2013-06-30 12:47:00,
2013-06-30 08:52:00,64.5,58.2,29.82,North,350,0.0,3.0,80,0.00,,---,0.00,VWS V14.01,2013-06-30 12:52:00,
2013-06-30 08:57:00,64.7,58.4,29.82,NE,35,4.3,4.3,80,0.00,,---,0.00,VWS V14.01,2013-06-30 12:57:00,
2013-06-30 09:02:00,64.9,58.6,29.82,North,350,5.3,5.3,80,0.00,,---,0.00,VWS V14.01,2013-06-30 13:02:00,
2013-06-30 09:07:00,65.1,58.4,29.82,NE,35,2.0,4.0,79,0.00,,---,0.00,VWS V14.01,2013-06-30 13:07:00,
2013-06-30 09:12:00,65.2,58.6,29.85,NE,35,0.0,0.0,79,0.00,,---,0.00,VWS V14.01,2013-06-30 13:12:00,
2013-06-30 09:17:00,65.6,58.6,29.85,NW,305,1.7,4.0,78,0.00,,---,0.00,VWS V14.01,2013-06-30 13:17:00,
2013-06-30 09:22:00,65.6,58.6,29.85,North,350,2.3,2.3,78,0.00,,---,0.00,VWS V14.01,2013-06-30 13:22:00,
2013-06-30 09:27:00,66.0,58.5,29.85,North,350,4.3,4.3,77,0.00,,---,0.00,VWS V14.01,2013-06-30 13:27:00,
2013-06-30 09:32:00,66.3,58.9,29.85,North,350,2.0,4.0,77,0.00,,---,0.00,VWS V14.01,2013-06-30 13:32:00,
2013-06-30 09:37:00,66.7,59.2,29.85,NE,35,2.3,2.3,77,0.00,,---,0.00,VWS V14.01,2013-06-30 13:37:00,
2013-06-30 09:42:00,67.0,59.2,29.85,North,350,3.0,3.3,76,0.00,,---,0.00,VWS V14.01,2013-06-30 13:42:00,
2013-06-30 09:47:00,67.4,59.6,29.85,North,350,4.0,5.3,76,0.00,,---,0.00,VWS V14.01,2013-06-30 13:47:00,
2013-06-30 09:52:00,67.8,59.6,29.85,NE,35,3.6,3.6,75,0.00,,---,0.00,VWS V14.01,2013-06-30 13:52:00,
2013-06-30 09:57:00,67.8,59.2,29.85,NE,35,3.3,3.6,74,0.00,,---,0.00,VWS V14.01,2013-06-30 13:57:00,
2013-06-30 10:02:00,67.8,59.6,29.85,NE,35,1.3,1.3,75,0.00,,---,0.00,VWS V14.01,2013-06-30 14:02:00,
2013-06-30 10:07:00,67.8,59.6,29.85,North,350,0.0,2.0,75,0.00,,---,0.00,VWS V14.01,2013-06-30 14:07:00,
2013-06-30 10:12:00,67.8,58.8,29.85,North,350,0.0,1.7,73,0.00,,---,0.00,VWS V14.01,2013-06-30 14:12:00,
2013-06-30 10:17:00,67.9,59.4,29.85,North,350,0.0,0.0,74,0.00,,---,0.00,VWS V14.01,2013-06-30 14:17:00,
2013-06-30 10:22:00,68.1,59.5,29.85,NE,35,3.6,3.6,74,0.00,,---,0.00,VWS V14.01,2013-06-30 14:22:00,
2013-06-30 10:27:00,68.1,59.2,29.85,NE,35,2.0,2.3,73,0.00,,---,0.00,VWS V14.01,2013-06-30 14:27:00,
2013-06-30 10:33:00,68.1,59.5,29.85,North,350,3.0,3.0,74,0.00,,---,0.00,VWS V14.01,2013-06-30 14:33:00,
2013-06-30 10:38:00,68.1,59.5,29.85,NE,35,0.0,0.0,74,0.00,,---,0.00,VWS V14.01,2013-06-30 14:38:00,
2013-06-30 10:43:00,68.3,59.7,29.85,North,350,0.0,4.0,74,0.00,,---,0.00,VWS V14.01,2013-06-30 14:43:00,
2013-06-30 10:48:00,68.5,59.9,29.85,NE,35,3.3,3.3,74,0.00,,---,0.00,VWS V14.01,2013-06-30 14:48:00,
2013-06-30 10:53:00,68.8,60.2,29.85,NW,305,1.7,4.3,74,0.00,,---,0.00,VWS V14.01,2013-06-30 14:53:00,
2013-06-30 10:58:00,69.0,60.0,29.85,NE,35,1.3,1.3,73,0.00,,---,0.00,VWS V14.01,2013-06-30 14:58:00,
2013-06-30 11:03:00,69.2,60.2,29.85,NE,35,0.0,1.7,73,0.00,,---,0.00,VWS V14.01,2013-06-30 15:03:00,
2013-06-30 11:08:00,69.2,60.6,29.85,North,350,0.0,4.0,74,0.00,,---,0.00,VWS V14.01,2013-06-30 15:08:00,
2013-06-30 11:13:00,69.6,60.9,29.85,NE,35,2.3,2.3,74,0.00,,---,0.00,VWS V14.01,2013-06-30 15:13:00,
2013-06-30 11:18:00,69.7,60.7,29.85,North,350,0.0,0.0,73,0.00,,---,0.00,VWS V14.01,2013-06-30 15:18:00,
2013-06-30 11:23:00,70.1,61.4,29.85,NE,35,4.3,4.3,74,0.00,,---,0.00,VWS V14.01,2013-06-30 15:23:00,
2013-06-30 11:28:00,70.5,61.4,29.85,North,350,3.6,3.6,73,0.00,,---,0.00,VWS V14.01,2013-06-30 15:28:00,
2013-06-30 11:33:00,70.6,61.6,29.85,North,350,0.0,2.0,73,0.00,,---,0.00,VWS V14.01,2013-06-30 15:33:00,
2013-06-30 11:38:00,70.8,61.8,29.85,NE,35,3.0,3.0,73,0.00,,---,0.00,VWS V14.01,2013-06-30 15:38:00,
2013-06-30 11:43:00,71.0,61.5,29.85,NE,35,3.6,3.6,72,0.00,,---,0.00,VWS V14.01,2013-06-30 15:43:00,
2013-06-30 11:48:00,71.2,60.9,29.85,North,350,4.3,4.3,70,0.00,,---,0.00,VWS V14.01,2013-06-30 15:48:00,
2013-06-30 11:53:00,71.5,59.6,29.85,NW,305,4.0,4.6,66,0.00,,---,0.00,VWS V14.01,2013-06-30 15:53:00,
2013-06-30 11:58:00,71.7,60.2,29.85,NE,35,0.0,0.0,67,0.00,,---,0.00,VWS V14.01,2013-06-30 15:58:00,
2013-06-30 12:03:00,72.4,61.3,29.85,NE,35,0.0,8.3,68,0.00,,---,0.00,VWS V14.01,2013-06-30 16:03:00,
2013-06-30 12:08:00,72.6,58.0,29.85,NE,35,4.6,5.0,60,0.00,,---,0.00,VWS V14.01,2013-06-30 16:08:00,
2013-06-30 12:13:00,72.8,59.9,29.85,NE,35,1.3,4.6,64,0.00,,---,0.00,VWS V14.01,2013-06-30 16:13:00,
2013-06-30 12:18:00,73.0,58.8,29.85,East,80,3.0,4.3,61,0.00,,---,0.00,VWS V14.01,2013-06-30 16:18:00,
2013-06-30 12:23:00,73.2,58.9,29.85,NE,35,1.7,6.0,61,0.00,,---,0.00,VWS V14.01,2013-06-30 16:23:00,
2013-06-30 12:28:00,73.2,59.4,29.85,NE,35,0.0,0.0,62,0.00,,---,0.00,VWS V14.01,2013-06-30 16:28:00,
2013-06-30 12:33:00,73.3,58.6,29.85,NE,35,3.6,3.6,60,0.00,,---,0.00,VWS V14.01,2013-06-30 16:33:00,
2013-06-30 12:38:00,73.3,58.2,29.85,North,350,2.3,5.3,59,0.00,,---,0.00,VWS V14.01,2013-06-30 16:38:00,
2013-06-30 12:43:00,73.3,59.5,29.85,East,80,2.3,4.0,62,0.00,,---,0.00,VWS V14.01,2013-06-30 16:43:00,
2013-06-30 12:49:00,73.7,59.9,29.85,NE,35,3.0,7.3,62,0.00,,---,0.00,VWS V14.01,2013-06-30 16:49:00,
2013-06-30 12:54:00,73.7,58.5,29.85,North,350,2.3,3.0,59,0.00,,---,0.00,VWS V14.01,2013-06-30 16:54:00,
2013-06-30 12:59:00,73.7,59.4,29.85,North,350,0.0,1.3,61,0.00,,---,0.00,VWS V14.01,2013-06-30 16:59:00,
2013-06-30 13:04:00,73.7,59.9,29.85,East,80,6.0,6.0,62,0.00,,---,0.00,VWS V14.01,2013-06-30 17:04:00,
2013-06-30 13:09:00,73.7,59.9,29.85,SE,125,4.0,5.3,62,0.00,,---,0.00,VWS V14.01,2013-06-30 17:09:00,
2013-06-30 13:14:00,73.5,59.3,29.85,NE,35,2.3,2.3,61,0.00,,---,0.00,VWS V14.01,2013-06-30 17:14:00,
2013-06-30 13:19:00,73.3,59.1,29.85,NE,35,1.3,1.3,61,0.00,,---,0.00,VWS V14.01,2013-06-30 17:19:00,
2013-06-30 13:24:00,73.5,58.8,29.85,SE,125,3.0,6.3,60,0.00,,---,0.00,VWS V14.01,2013-06-30 17:24:00,
2013-06-30 13:29:00,74.1,60.2,29.85,ESE,102,5.6,5.6,62,0.00,,---,0.00,VWS V14.01,2013-06-30 17:29:00,
2013-06-30 13:34:00,74.1,58.4,29.85,ESE,102,3.3,4.6,58,0.00,,---,0.00,VWS V14.01,2013-06-30 17:34:00,
2013-06-30 13:39:00,73.7,59.0,29.85,NE,35,0.0,1.7,60,0.00,,---,0.00,VWS V14.01,2013-06-30 17:39:00,
2013-06-30 13:44:00,73.3,59.1,29.85,SE,125,4.3,4.3,61,0.00,,---,0.00,VWS V14.01,2013-06-30 17:44:00,
2013-06-30 13:49:00,73.0,59.2,29.85,SE,125,4.3,4.3,62,0.00,,---,0.00,VWS V14.01,2013-06-30 17:49:00,
2013-06-30 13:54:00,73.0,59.7,29.85,East,80,4.3,4.3,63,0.00,,---,0.00,VWS V14.01,2013-06-30 17:54:00,
2013-06-30 13:59:00,73.0,59.7,29.85,ESE,102,3.0,4.3,63,0.00,,---,0.00,VWS V14.01,2013-06-30 17:59:00,
2013-06-30 14:00:00,73.0,59.2,29.85,East,80,1.3,3.0,62,0.00,,---,0.00,VWS V14.01,2013-06-30 18:00:00,
2013-06-30 14:05:00,73.0,59.2,29.85,East,80,0.0,4.0,62,0.00,,---,0.00,VWS V14.01,2013-06-30 18:05:00,
2013-06-30 14:10:00,73.0,59.7,29.85,NE,35,3.0,3.0,63,0.00,,---,0.00,VWS V14.01,2013-06-30 18:10:00,
2013-06-30 14:15:00,72.8,59.0,29.85,West,260,0.0,0.0,62,0.00,,---,0.00,VWS V14.01,2013-06-30 18:15:00,
2013-06-30 14:20:00,72.4,58.7,29.85,North,350,0.0,0.0,62,0.00,,---,0.00,VWS V14.01,2013-06-30 18:20:00,
2013-06-30 14:25:00,72.4,59.2,29.85,NW,305,0.0,0.0,63,0.00,,---,0.00,VWS V14.01,2013-06-30 18:25:00,
2013-06-30 14:30:00,72.6,59.8,29.85,North,350,0.0,0.0,64,0.00,,---,0.00,VWS V14.01,2013-06-30 18:30:00,
2013-06-30 14:35:00,72.6,60.2,29.85,NE,35,0.0,0.0,65,0.00,,---,0.00,VWS V14.01,2013-06-30 18:35:00,
2013-06-30 14:40:00,72.6,59.3,29.85,North,350,0.0,1.7,63,0.00,,---,0.00,VWS V14.01,2013-06-30 18:40:00,
2013-06-30 14:45:00,72.3,58.1,29.85,North,350,6.3,6.3,61,0.00,,---,0.00,VWS V14.01,2013-06-30 18:45:00,
2013-06-30 14:50:00,72.3,57.6,29.85,North,350,2.3,3.0,60,0.00,,---,0.00,VWS V14.01,2013-06-30 18:50:00,
2013-06-30 14:55:00,72.1,57.9,29.85,North,350,0.0,4.0,61,0.00,,---,0.00,VWS V14.01,2013-06-30 18:55:00,
2013-06-30 15:01:00,72.1,57.9,29.85,NW,305,0.0,7.0,61,0.00,,---,0.00,VWS V14.01,2013-06-30 19:01:00,
2013-06-30 15:06:00,72.6,58.4,29.85,North,350,0.0,5.6,61,0.00,,---,0.00,VWS V14.01,2013-06-30 19:06:00,
2013-06-30 15:11:00,72.8,59.0,29.85,North,350,0.0,0.0,62,0.00,,---,0.00,VWS V14.01,2013-06-30 19:11:00,
2013-06-30 15:16:00,73.0,59.2,29.85,North,350,3.0,6.3,62,0.00,,---,0.00,VWS V14.01,2013-06-30 19:16:00,
2013-06-30 15:21:00,72.8,59.9,29.85,North,350,5.3,5.3,64,0.00,,---,0.00,VWS V14.01,2013-06-30 19:21:00,
2013-06-30 15:26:00,73.2,59.8,29.85,North,350,3.3,4.6,63,0.00,,---,0.00,VWS V14.01,2013-06-30 19:26:00,
2013-06-30 15:31:00,73.0,59.7,29.85,North,350,6.0,6.0,63,0.00,,---,0.00,VWS V14.01,2013-06-30 19:31:00,
2013-06-30 15:36:00,72.3,59.0,29.85,North,350,3.3,4.0,63,0.00,,---,0.00,VWS V14.01,2013-06-30 19:36:00,
2013-06-30 15:41:00,71.9,58.6,29.85,NE,35,0.0,3.6,63,0.00,,---,0.00,VWS V14.01,2013-06-30 19:41:00,
2013-06-30 15:46:00,71.7,58.9,29.85,NE,35,0.0,0.0,64,0.00,,---,0.00,VWS V14.01,2013-06-30 19:46:00,
2013-06-30 15:51:00,71.2,56.6,29.88,NE,35,3.6,8.6,60,0.00,,---,0.00,VWS V14.01,2013-06-30 19:51:00,
2013-06-30 15:56:00,68.8,56.6,29.88,West,260,4.3,4.3,65,0.00,,---,0.00,VWS V14.01,2013-06-30 19:56:00,
2013-06-30 16:01:00,65.8,55.3,29.88,NE,35,5.0,5.0,69,0.00,,---,0.00,VWS V14.01,2013-06-30 20:01:00,
2013-06-30 16:06:00,63.6,55.6,29.88,NE,35,3.0,3.0,75,0.04,,---,0.04,VWS V14.01,2013-06-30 20:06:00,
2013-06-30 16:11:00,63.4,55.4,29.88,North,350,0.0,0.0,75,0.04,,---,0.04,VWS V14.01,2013-06-30 20:11:00,
2013-06-30 16:16:00,63.4,55.4,29.88,North,350,0.0,0.0,75,0.09,,---,0.09,VWS V14.01,2013-06-30 20:16:00,
2013-06-30 16:21:00,63.6,55.2,29.88,West,260,0.0,0.0,74,0.09,,---,0.09,VWS V14.01,2013-06-30 20:21:00,
2013-06-30 16:22:00,63.6,55.2,29.88,West,260,0.0,0.0,74,0.09,,---,0.09,VWS V14.01,2013-06-30 20:22:00,
2013-06-30 16:27:00,63.4,56.1,29.88,NW,305,0.0,0.0,77,0.09,,---,0.09,VWS V14.01,2013-06-30 20:27:00,
2013-06-30 16:32:00,63.4,56.8,29.88,West,260,0.0,0.0,79,0.09,,---,0.09,VWS V14.01,2013-06-30 20:32:00,
2013-06-30 16:37:00,63.8,57.5,29.88,West,260,0.0,0.0,80,0.09,,---,0.09,VWS V14.01,2013-06-30 20:37:00,
2013-06-30 16:42:00,63.8,58.2,29.88,North,350,2.3,2.3,82,0.09,,---,0.09,VWS V14.01,2013-06-30 20:42:00,
2013-06-30 16:47:00,63.8,58.5,29.88,North,350,0.0,0.0,83,0.09,,---,0.09,VWS V14.01,2013-06-30 20:47:00,
2013-06-30 16:52:00,63.8,58.9,29.88,NE,35,2.0,2.0,84,0.09,,---,0.09,VWS V14.01,2013-06-30 20:52:00,
2013-06-30 16:57:00,63.3,58.7,29.88,NE,35,0.0,2.3,85,0.13,,---,0.13,VWS V14.01,2013-06-30 20:57:00,
2013-06-30 17:02:00,62.9,59.0,29.88,NE,35,0.0,0.0,87,0.13,,---,0.13,VWS V14.01,2013-06-30 21:02:00,
2013-06-30 17:07:00,62.7,58.8,29.88,NE,35,5.0,5.0,87,0.09,,---,0.13,VWS V14.01,2013-06-30 21:07:00,
2013-06-30 17:12:00,62.9,58.7,29.88,NW,305,2.0,2.0,86,0.09,,---,0.13,VWS V14.01,2013-06-30 21:12:00,
2013-06-30 17:17:00,62.9,58.7,29.88,NW,305,2.0,2.0,86,0.08,,---,0.17,VWS V14.01,2013-06-30 21:17:00,
2013-06-30 17:22:00,63.3,58.7,29.88,North,350,0.0,0.0,85,0.08,,---,0.17,VWS V14.01,2013-06-30 21:22:00,
2013-06-30 17:27:00,63.3,59.0,29.88,NE,35,0.0,1.3,86,0.08,,---,0.17,VWS V14.01,2013-06-30 21:27:00,
2013-06-30 17:33:00,63.6,59.0,29.88,WNW,282,2.0,2.0,85,0.08,,---,0.17,VWS V14.01,2013-06-30 21:33:00,
2013-06-30 17:38:00,63.8,59.2,29.88,West,260,0.0,0.0,85,0.08,,---,0.17,VWS V14.01,2013-06-30 21:38:00,
2013-06-30 17:43:00,63.8,59.2,29.88,NW,305,0.0,0.0,85,0.08,,---,0.17,VWS V14.01,2013-06-30 21:43:00,
2013-06-30 17:48:00,63.8,59.5,29.88,NW,305,0.0,0.0,86,0.08,,---,0.17,VWS V14.01,2013-06-30 21:48:00,
2013-06-30 17:53:00,64.0,60.0,29.88,NW,305,0.0,0.0,87,0.08,,---,0.17,VWS V14.01,2013-06-30 21:53:00,
2013-06-30 17:58:00,64.3,60.7,29.88,NW,305,0.0,0.0,88,0.04,,---,0.17,VWS V14.01,2013-06-30 21:58:00,
2013-06-30 18:03:00,64.5,60.9,29.88,North,350,5.0,5.0,88,0.04,,---,0.17,VWS V14.01,2013-06-30 22:03:00,
2013-06-30 18:08:00,64.7,61.7,29.88,North,350,4.0,4.0,90,0.04,,---,0.17,VWS V14.01,2013-06-30 22:08:00,
2013-06-30 18:13:00,64.7,61.4,29.88,NE,35,2.3,2.3,89,0.04,,---,0.17,VWS V14.01,2013-06-30 22:13:00,
2013-06-30 18:18:00,64.9,61.6,29.88,North,350,3.0,4.0,89,0.04,,---,0.17,VWS V14.01,2013-06-30 22:18:00,
2013-06-30 18:23:00,64.7,61.4,29.88,NE,35,5.3,5.3,89,0.00,,---,0.17,VWS V14.01,2013-06-30 22:23:00,
2013-06-30 18:28:00,64.5,61.2,29.88,NE,35,2.0,4.3,89,0.00,,---,0.17,VWS V14.01,2013-06-30 22:28:00,
2013-06-30 18:33:00,64.3,61.0,29.88,North,350,1.7,1.7,89,0.00,,---,0.17,VWS V14.01,2013-06-30 22:33:00,
2013-06-30 18:38:00,64.3,61.0,29.88,NE,35,3.0,3.0,89,0.00,,---,0.17,VWS V14.01,2013-06-30 22:38:00,
2013-06-30 18:43:00,64.3,61.0,29.88,North,350,0.0,1.7,89,0.00,,---,0.17,VWS V14.01,2013-06-30 22:43:00,
2013-06-30 18:48:00,64.3,61.0,29.88,North,350,0.0,0.0,89,0.00,,---,0.17,VWS V14.01,2013-06-30 22:48:00,
2013-06-30 18:53:00,64.3,61.0,29.88,NE,35,0.0,0.0,89,0.00,,---,0.17,VWS V14.01,2013-06-30 22:53:00,
2013-06-30 18:58:00,64.5,61.2,29.88,North,350,0.0,0.0,89,0.00,,---,0.17,VWS V14.01,2013-06-30 22:58:00,
2013-06-30 19:03:00,64.5,61.2,29.91,NE,35,0.0,0.0,89,0.00,,---,0.17,VWS V14.01,2013-06-30 23:03:00,
2013-06-30 19:08:00,64.7,61.1,29.91,NW,305,0.0,0.0,88,0.00,,---,0.17,VWS V14.01,2013-06-30 23:08:00,
2013-06-30 19:13:00,64.9,61.6,29.91,SE,125,1.7,1.7,89,0.00,,---,0.17,VWS V14.01,2013-06-30 23:13:00,
2013-06-30 19:18:00,64.9,61.6,29.91,NE,35,0.0,6.0,89,0.00,,---,0.17,VWS V14.01,2013-06-30 23:18:00,
2013-06-30 19:23:00,64.9,61.6,29.91,SE,125,0.0,0.0,89,0.00,,---,0.17,VWS V14.01,2013-06-30 23:23:00,
2013-06-30 19:28:00,64.9,61.6,29.91,SW,215,4.0,4.0,89,0.00,,---,0.17,VWS V14.01,2013-06-30 23:28:00,
2013-06-30 19:33:00,64.9,61.6,29.91,North,350,1.3,5.3,89,0.00,,---,0.17,VWS V14.01,2013-06-30 23:33:00,
2013-06-30 19:38:00,64.7,61.4,29.91,NE,35,0.0,0.0,89,0.00,,---,0.17,VWS V14.01,2013-06-30 23:38:00,
2013-06-30 19:43:00,64.7,61.4,29.91,NE,35,0.0,0.0,89,0.00,,---,0.17,VWS V14.01,2013-06-30 23:43:00,
2013-06-30 19:48:00,64.9,61.6,29.91,NE,35,0.0,0.0,89,0.00,,---,0.17,VWS V14.01,2013-06-30 23:48:00,
2013-06-30 19:54:00,64.9,61.6,29.91,NE,35,0.0,0.0,89,0.00,,---,0.17,VWS V14.01,2013-06-30 23:54:00,
2013-06-30 19:59:00,65.1,61.7,29.91,NW,305,0.0,0.0,89,0.00,,---,0.17,VWS V14.01,2013-06-30 23:59:00,
2013-06-30 20:04:00,64.9,61.6,29.91,NW,305,0.0,0.0,89,0.00,,---,0.17,VWS V14.01,2013-07-01 00:04:00,
2013-06-30 20:09:00,65.1,61.7,29.91,NE,35,0.0,0.0,89,0.00,,---,0.17,VWS V14.01,2013-07-01 00:09:00,
2013-06-30 20:14:00,65.1,61.7,29.91,NW,305,0.0,0.0,89,0.00,,---,0.17,VWS V14.01,2013-07-01 00:14:00,
2013-06-30 20:19:00,65.2,62.2,29.91,WNW,282,0.0,0.0,90,0.00,,---,0.17,VWS V14.01,2013-07-01 00:19:00,
2013-06-30 20:24:00,65.2,62.2,29.91,NW,305,0.0,0.0,90,0.00,,---,0.17,VWS V14.01,2013-07-01 00:24:00,
2013-06-30 20:29:00,65.2,61.9,29.91,NW,305,0.0,0.0,89,0.00,,---,0.17,VWS V14.01,2013-07-01 00:29:00,
2013-06-30 20:34:00,65.2,62.2,29.91,NW,305,0.0,0.0,90,0.00,,---,0.17,VWS V14.01,2013-07-01 00:34:00,
2013-06-30 20:39:00,65.2,62.2,29.91,North,350,0.0,0.0,90,0.00,,---,0.17,VWS V14.01,2013-07-01 00:39:00,
2013-06-30 20:44:00,65.1,62.1,29.91,North,350,0.0,0.0,90,0.00,,---,0.17,VWS V14.01,2013-07-01 00:44:00,
2013-06-30 20:49:00,65.1,62.1,29.91,North,350,0.0,0.0,90,0.00,,---,0.17,VWS V14.01,2013-07-01 00:49:00,
2013-06-30 20:54:00,65.1,62.1,29.91,North,350,0.0,0.0,90,0.00,,---,0.17,VWS V14.01,2013-07-01 00:54:00,
2013-06-30 20:59:00,64.9,61.6,29.91,North,350,0.0,0.0,89,0.00,,---,0.17,VWS V14.01,2013-07-01 00:59:00,
2013-06-30 21:04:00,64.7,61.7,29.91,North,350,0.0,0.0,90,0.00,,---,0.17,VWS V14.01,2013-07-01 01:04:00,
2013-06-30 21:09:00,64.5,61.5,29.91,North,350,0.0,0.0,90,0.00,,---,0.17,VWS V14.01,2013-07-01 01:09:00,
2013-06-30 21:14:00,64.5,61.5,29.91,North,350,0.0,0.0,90,0.00,,---,0.17,VWS V14.01,2013-07-01 01:14:00,
2013-06-30 21:19:00,64.3,61.3,29.91,North,350,0.0,0.0,90,0.00,,---,0.17,VWS V14.01,2013-07-01 01:19:00,
2013-06-30 21:24:00,64.2,61.2,29.91,North,350,0.0,0.0,90,0.00,,---,0.17,VWS V14.01,2013-07-01 01:24:00,
2013-06-30 21:29:00,64.0,61.0,29.91,North,350,0.0,0.0,90,0.00,,---,0.17,VWS V14.01,2013-07-01 01:29:00,
2013-06-30 21:34:00,64.0,61.0,29.91,ESE,102,0.0,0.0,90,0.00,,---,0.17,VWS V14.01,2013-07-01 01:34:00,
2013-06-30 21:39:00,63.8,61.1,29.91,ESE,102,0.0,0.0,91,0.00,,---,0.17,VWS V14.01,2013-07-01 01:39:00,
2013-06-30 21:44:00,63.6,61.0,29.91,ESE,102,0.0,0.0,91,0.00,,---,0.17,VWS V14.01,2013-07-01 01:44:00,
2013-06-30 21:49:00,63.6,61.0,29.91,East,80,0.0,0.0,91,0.00,,---,0.17,VWS V14.01,2013-07-01 01:49:00,
2013-06-30 21:54:00,63.6,61.3,29.91,NW,305,0.0,0.0,92,0.00,,---,0.17,VWS V14.01,2013-07-01 01:54:00,
2013-06-30 21:59:00,63.6,61.0,29.91,NW,305,0.0,0.0,91,0.00,,---,0.17,VWS V14.01,2013-07-01 01:59:00,
2013-06-30 22:04:00,63.6,61.0,29.91,NE,35,0.0,0.0,91,0.00,,---,0.17,VWS V14.01,2013-07-01 02:04:00,
2013-06-30 22:10:00,63.6,60.6,29.91,North,350,0.0,0.0,90,0.00,,---,0.17,VWS V14.01,2013-07-01 02:10:00,
2013-06-30 22:15:00,63.6,60.6,29.91,North,350,0.0,0.0,90,0.00,,---,0.17,VWS V14.01,2013-07-01 02:15:00,
2013-06-30 22:20:00,63.4,59.8,29.94,NE,35,0.0,0.0,88,0.00,,---,0.17,VWS V14.01,2013-07-01 02:20:00,
2013-06-30 22:25:00,63.4,59.5,29.94,North,350,0.0,0.0,87,0.00,,---,0.17,VWS V14.01,2013-07-01 02:25:00,
2013-06-30 22:30:00,63.4,58.9,29.94,North,350,0.0,0.0,85,0.00,,---,0.17,VWS V14.01,2013-07-01 02:30:00,
2013-06-30 22:35:00,63.4,58.5,29.94,North,350,0.0,0.0,84,0.00,,---,0.17,VWS V14.01,2013-07-01 02:35:00,
2013-06-30 22:40:00,63.3,58.3,29.94,North,350,0.0,0.0,84,0.00,,---,0.17,VWS V14.01,2013-07-01 02:40:00,
2013-06-30 22:45:00,63.3,58.0,29.94,North,350,0.0,1.7,83,0.00,,---,0.17,VWS V14.01,2013-07-01 02:45:00,
2013-06-30 22:50:00,63.1,57.5,29.94,North,350,0.0,0.0,82,0.00,,---,0.17,VWS V14.01,2013-07-01 02:50:00,
2013-06-30 22:55:00,62.9,57.3,29.94,North,350,0.0,0.0,82,0.00,,---,0.17,VWS V14.01,2013-07-01 02:55:00,
2013-06-30 23:00:00,62.7,57.5,29.94,North,350,0.0,1.3,83,0.00,,---,0.17,VWS V14.01,2013-07-01 03:00:00,
2013-06-30 23:05:00,62.4,57.1,29.94,NW,305,0.0,0.0,83,0.00,,---,0.17,VWS V14.01,2013-07-01 03:05:00,
2013-06-30 23:10:00,62.4,57.1,29.94,NW,305,0.0,0.0,83,0.00,,---,0.17,VWS V14.01,2013-07-01 03:10:00,
2013-06-30 23:15:00,62.4,57.1,29.94,North,350,0.0,0.0,83,0.00,,---,0.17,VWS V14.01,2013-07-01 03:15:00,
2013-06-30 23:20:00,62.2,56.6,29.94,North,350,1.7,1.7,82,0.00,,---,0.17,VWS V14.01,2013-07-01 03:20:00,
2013-06-30 23:25:00,62.2,56.6,29.94,NE,35,0.0,0.0,82,0.00,,---,0.17,VWS V14.01,2013-07-01 03:25:00,
2013-06-30 23:30:00,62.0,56.1,29.94,NE,35,0.0,0.0,81,0.00,,---,0.17,VWS V14.01,2013-07-01 03:30:00,
2013-06-30 23:35:00,61.8,55.6,29.94,NW,305,0.0,0.0,80,0.00,,---,0.17,VWS V14.01,2013-07-01 03:35:00,
2013-06-30 23:40:00,61.6,55.1,29.94,NW,305,0.0,0.0,79,0.00,,---,0.17,VWS V14.01,2013-07-01 03:40:00,
2013-06-30 23:45:00,61.6,54.7,29.94,NW,305,0.0,0.0,78,0.00,,---,0.17,VWS V14.01,2013-07-01 03:45:00,
2013-06-30 23:50:00,61.5,54.2,29.94,NE,35,2.0,2.0,77,0.00,,---,0.17,VWS V14.01,2013-07-01 03:50:00,
2013-06-30 23:55:00,61.3,54.0,29.94,North,350,0.0,1.7,77,0.00,,---,0.17,VWS V14.01,2013-07-01 03:55:00,